Time;durP1;ratioP1;P1;durP2;ratioP2;P2;SDS_P1;SDS_P2;PMS_P1;PMS_P2;Temp;Humidity;BMP_temperature;BMP_pressure;BME280_temperature;BME280_humidity;BME280_pressure;Samples;Min_cycle;Max_cycle;Signal;HPM_P1;HPM_P2
2023/02/07 00:03:37;;;;;;;14.05;7.38;;;;;;;;;;10448685;28;20491;-75
2023/02/07 00:08:37;;;;;;;17.95;8.73;;;;;;;;;;10449550;28;20048;-80
2023/02/07 00:13:38;;;;;;;15.30;5.78;;;;;;;;;;10440404;28;20025;-74
2023/02/07 00:18:38;;;;;;;17.27;7.78;;;;;;;;;;10460004;28;20024;-75
2023/02/07 00:23:39;;;;;;;11.80;7.03;;;;;;;;;;10448138;28;20033;-76
2023/02/07 00:28:39;;;;;;;13.82;7.57;;;;;;;;;;10449096;28;20032;-78
2023/02/07 00:33:41;;;;;;;12.38;5.97;;;;;;;;;;10448470;28;20036;-75
2023/02/07 00:38:41;;;;;;;14.68;6.35;;;;;;;;;;10448982;28;20067;-73
2023/02/07 00:43:42;;;;;;;11.52;7.00;;;;;;;;;;10449931;28;20119;-79
2023/02/07 00:48:42;;;;;;;12.30;6.70;;;;;;;;;;10448372;28;20025;-76
2023/02/07 00:53:43;;;;;;;13.50;7.63;;;;;;;;;;10449468;28;20479;-74
2023/02/07 00:58:44;;;;;;;13.80;8.02;;;;;;;;;;10446545;28;20036;-74
2023/02/07 01:03:44;;;;;;;15.50;7.33;;;;;;;;;;10448109;28;20040;-73
2023/02/07 01:08:45;;;;;;;10.52;6.15;;;;;;;;;;10449250;28;20291;-76
2023/02/07 01:13:45;;;;;;;14.15;6.55;;;;;;;;;;10448230;28;20486;-77
2023/02/07 01:18:46;;;;;;;10.17;5.60;;;;;;;;;;10448357;28;20600;-73
2023/02/07 01:23:46;;;;;;;12.05;6.75;;;;;;;;;;10453092;28;20150;-73
2023/02/07 01:28:46;;;;;;;10.43;6.82;;;;;;;;;;10447502;28;20487;-72
2023/02/07 01:33:47;;;;;;;14.60;6.50;;;;;;;;;;10438338;28;20049;-78
2023/02/07 01:38:47;;;;;;;14.43;8.13;;;;;;;;;;10413311;28;20013;-74
2023/02/07 01:43:59;;;;;;;12.00;7.03;;;;;;;;;;10439407;28;20263;-74
2023/02/07 01:49:02;;;;;;;10.82;7.55;;;;;;;;;;10442212;28;20411;-74
2023/02/07 01:54:05;;;;;;;17.45;7.57;;;;;;;;;;10447789;28;20025;-74
2023/02/07 01:59:05;;;;;;;13.02;7.35;;;;;;;;;;10445984;28;20017;-73
2023/02/07 02:04:06;;;;;;;10.00;5.82;;;;;;;;;;10446124;28;20032;-75
2023/02/07 02:09:07;;;;;;;13.07;7.43;;;;;;;;;;10446211;28;20412;-73
2023/02/07 02:14:13;;;;;;;13.20;7.28;;;;;;;;;;10445729;28;20032;-73
2023/02/07 02:19:41;;;;;;;14.50;7.68;;;;;;;;;;10445034;28;20025;-81
2023/02/07 02:25:00;;;;;;;12.32;7.43;;;;;;;;;;10445933;28;20116;-73
2023/02/07 02:30:16;;;;;;;10.95;7.78;;;;;;;;;;10445655;28;20483;-76
2023/02/07 02:35:41;;;;;;;15.52;8.80;;;;;;;;;;10446351;28;20024;-76
2023/02/07 02:40:50;;;;;;;14.45;7.20;;;;;;;;;;10445611;28;20036;-72
2023/02/07 02:46:02;;;;;;;8.80;5.97;;;;;;;;;;10445346;28;20033;-73
2023/02/07 02:51:03;;;;;;;12.93;6.32;;;;;;;;;;10418764;28;20087;-76
2023/02/07 02:56:21;;;;;;;13.32;7.78;;;;;;;;;;10445623;28;20434;-74
2023/02/07 03:01:21;;;;;;;11.95;6.68;;;;;;;;;;10444625;28;20017;-76
2023/02/07 03:06:25;;;;;;;14.00;7.45;;;;;;;;;;10444723;28;20060;-74
2023/02/07 03:11:27;;;;;;;15.43;7.18;;;;;;;;;;10444839;28;20049;-74
2023/02/07 03:16:39;;;;;;;12.23;6.35;;;;;;;;;;10445631;28;20029;-74
2023/02/07 03:21:39;;;;;;;10.63;6.53;;;;;;;;;;10444461;28;20021;-73
2023/02/07 03:26:40;;;;;;;18.73;7.68;;;;;;;;;;10427503;28;20025;-73
2023/02/07 03:31:42;;;;;;;12.20;5.90;;;;;;;;;;10452037;28;20049;-74
2023/02/07 03:36:48;;;;;;;14.75;6.30;;;;;;;;;;10418828;28;20028;-74
2023/02/07 03:41:52;;;;;;;10.60;6.22;;;;;;;;;;10446186;28;20192;-73
2023/02/07 03:46:53;;;;;;;18.95;5.88;;;;;;;;;;10450777;28;20021;-76
2023/02/07 03:51:55;;;;;;;12.20;5.40;;;;;;;;;;10452755;28;20048;-77
2023/02/07 03:56:55;;;;;;;10.25;4.95;;;;;;;;;;10450518;28;20051;-75
2023/02/07 04:01:57;;;;;;;14.82;6.88;;;;;;;;;;10450985;28;20025;-82
2023/02/07 04:06:57;;;;;;;13.20;6.90;;;;;;;;;;10449185;28;20084;-78
2023/02/07 04:11:58;;;;;;;16.83;7.82;;;;;;;;;;10425375;28;20569;-73
2023/02/07 04:16:58;;;;;;;12.07;6.50;;;;;;;;;;10410268;28;20410;-73
2023/02/07 04:21:58;;;;;;;17.23;6.30;;;;;;;;;;10439176;28;20013;-76
2023/02/07 04:27:00;;;;;;;13.25;5.88;;;;;;;;;;10449584;28;20031;-76
2023/02/07 04:32:01;;;;;;;11.85;6.80;;;;;;;;;;10448779;28;20029;-74
2023/02/07 04:37:01;;;;;;;11.75;6.28;;;;;;;;;;10407087;28;20032;-77
2023/02/07 04:42:02;;;;;;;12.40;6.03;;;;;;;;;;10439348;28;20048;-78
2023/02/07 04:47:02;;;;;;;14.15;6.93;;;;;;;;;;10448540;28;20490;-76
2023/02/07 04:52:03;;;;;;;14.30;6.47;;;;;;;;;;10442341;28;20523;-76
2023/02/07 04:57:03;;;;;;;13.30;7.57;;;;;;;;;;10444940;28;20025;-75
2023/02/07 05:02:03;;;;;;;14.20;7.05;;;;;;;;;;10447401;28;20437;-73
2023/02/07 05:07:03;;;;;;;17.02;9.23;;;;;;;;;;10448397;28;20088;-81
2023/02/07 05:12:04;;;;;;;12.40;7.30;;;;;;;;;;10446799;28;20044;-75
2023/02/07 05:17:04;;;;;;;12.75;7.80;;;;;;;;;;10446075;28;20112;-75
2023/02/07 05:22:04;;;;;;;14.70;8.68;;;;;;;;;;10445643;28;20634;-74
2023/02/07 05:27:05;;;;;;;14.57;7.18;;;;;;;;;;10443851;28;20502;-75
2023/02/07 05:37:24;;;;;;;18.15;7.95;;;;;;;;;;10448067;28;20100;-76
2023/02/07 05:42:24;;;;;;;15.48;7.93;;;;;;;;;;10447334;28;20418;-74
2023/02/07 05:47:25;;;;;;;14.02;7.40;;;;;;;;;;10443501;28;20510;-74
2023/02/07 05:52:25;;;;;;;19.67;9.35;;;;;;;;;;10441425;28;20018;-73
2023/02/07 05:57:25;;;;;;;16.13;8.17;;;;;;;;;;10445086;28;20031;-73
2023/02/07 06:02:25;;;;;;;17.00;9.68;;;;;;;;;;10432304;28;20029;-73
2023/02/07 06:07:26;;;;;;;17.95;7.32;;;;;;;;;;10418492;28;20049;-73
2023/02/07 06:12:26;;;;;;;14.10;6.85;;;;;;;;;;10441207;28;20024;-75
2023/02/07 06:17:26;;;;;;;20.33;9.10;;;;;;;;;;10441123;28;20017;-76
2023/02/07 06:22:27;;;;;;;17.98;8.68;;;;;;;;;;10443072;28;20017;-77
2023/02/07 06:27:27;;;;;;;14.70;8.93;;;;;;;;;;10407108;28;20525;-75
2023/02/07 06:32:27;;;;;;;20.08;11.93;;;;;;;;;;10408375;28;20292;-74
2023/02/07 06:37:27;;;;;;;17.63;9.88;;;;;;;;;;10413678;28;20093;-76
2023/02/07 06:42:28;;;;;;;19.40;10.18;;;;;;;;;;10443593;28;20445;-75
2023/02/07 06:47:28;;;;;;;18.77;10.50;;;;;;;;;;10410281;28;20022;-74
2023/02/07 06:52:28;;;;;;;20.20;10.43;;;;;;;;;;10411183;28;20549;-72
2023/02/07 06:57:29;;;;;;;20.40;10.50;;;;;;;;;;10445131;28;20103;-79
2023/02/07 07:02:29;;;;;;;17.58;10.00;;;;;;;;;;10451793;28;20051;-77
2023/02/07 07:07:29;;;;;;;25.90;12.52;;;;;;;;;;10452397;28;20102;-73
2023/02/07 07:12:30;;;;;;;27.42;15.27;;;;;;;;;;10453286;28;20017;-73
2023/02/07 07:17:30;;;;;;;31.15;16.25;;;;;;;;;;10453478;28;20025;-74
2023/02/07 07:22:30;;;;;;;24.00;12.10;;;;;;;;;;10451965;28;20024;-75
2023/02/07 07:27:31;;;;;;;24.97;12.20;;;;;;;;;;10453271;28;20504;-78
2023/02/07 07:32:31;;;;;;;30.35;13.43;;;;;;;;;;10452033;28;20029;-79
2023/02/07 07:37:31;;;;;;;30.20;13.90;;;;;;;;;;10451185;28;20028;-73
2023/02/07 07:42:32;;;;;;;31.67;12.97;;;;;;;;;;10451085;28;20033;-73
2023/02/07 07:47:32;;;;;;;30.88;14.13;;;;;;;;;;10451196;28;20024;-76
2023/02/07 07:52:33;;;;;;;29.70;13.60;;;;;;;;;;10450300;28;20013;-72
2023/02/07 07:57:35;;;;;;;27.50;12.43;;;;;;;;;;10451059;28;20505;-73
2023/02/07 08:02:35;;;;;;;28.85;12.43;;;;;;;;;;10414912;28;20053;-77
2023/02/07 08:07:35;;;;;;;21.83;11.32;;;;;;;;;;10442833;28;20520;-73
2023/02/07 08:12:36;;;;;;;29.77;11.57;;;;;;;;;;10448560;28;20503;-73
2023/02/07 08:17:36;;;;;;;27.93;12.20;;;;;;;;;;10433630;28;20024;-72
2023/02/07 08:22:37;;;;;;;23.27;11.45;;;;;;;;;;10449714;28;20023;-73
2023/02/07 08:27:37;;;;;;;28.27;9.77;;;;;;;;;;10441114;28;20022;-73
2023/02/07 08:32:38;;;;;;;24.55;9.85;;;;;;;;;;10451340;28;20031;-74
2023/02/07 08:37:39;;;;;;;18.73;9.30;;;;;;;;;;10449274;28;20017;-75
2023/02/07 08:42:39;;;;;;;15.30;8.13;;;;;;;;;;10448678;28;20019;-74
2023/02/07 08:47:39;;;;;;;12.65;7.07;;;;;;;;;;10449153;28;20803;-73
2023/02/07 08:52:40;;;;;;;24.13;8.63;;;;;;;;;;10449612;28;20013;-73
2023/02/07 08:57:40;;;;;;;13.52;7.78;;;;;;;;;;10448147;28;20449;-72
2023/02/07 09:02:42;;;;;;;31.55;9.68;;;;;;;;;;10448117;28;20016;-74
2023/02/07 09:07:42;;;;;;;16.90;8.98;;;;;;;;;;10447918;28;20581;-72
2023/02/07 09:12:42;;;;;;;20.43;8.97;;;;;;;;;;10447522;28;20020;-72
2023/02/07 09:17:43;;;;;;;25.23;12.68;;;;;;;;;;10447641;28;20124;-76
2023/02/07 09:28:02;;;;;;;28.00;11.00;;;;;;;;;;10448092;28;20590;-73
2023/02/07 09:33:02;;;;;;;27.15;12.38;;;;;;;;;;10446958;28;20024;-74
2023/02/07 09:38:03;;;;;;;25.17;10.98;;;;;;;;;;10446931;28;20033;-74
2023/02/07 09:43:22;;;;;;;22.15;11.27;;;;;;;;;;10446461;28;20025;-73
2023/02/07 09:48:26;;;;;;;22.70;9.85;;;;;;;;;;10446739;28;20044;-73
2023/02/07 09:53:32;;;;;;;20.63;9.38;;;;;;;;;;10429598;28;20473;-76
2023/02/07 09:58:56;;;;;;;20.10;9.95;;;;;;;;;;10445841;28;20058;-71
2023/02/07 10:04:11;;;;;;;19.10;7.03;;;;;;;;;;10445911;28;20410;-74
2023/02/07 10:09:14;;;;;;;20.95;7.63;;;;;;;;;;10445800;28;20095;-79
2023/02/07 10:14:20;;;;;;;25.50;8.55;;;;;;;;;;10445767;28;20035;-77
2023/02/07 10:19:20;;;;;;;27.58;9.23;;;;;;;;;;10445448;28;20024;-74
2023/02/07 10:24:27;;;;;;;20.25;9.15;;;;;;;;;;10445558;28;20020;-73
2023/02/07 10:29:30;;;;;;;24.63;10.20;;;;;;;;;;10441982;28;20025;-74
2023/02/07 10:34:33;;;;;;;26.40;11.60;;;;;;;;;;10422280;28;20520;-72
2023/02/07 10:39:38;;;;;;;24.85;12.30;;;;;;;;;;10453414;28;20017;-77
2023/02/07 10:44:38;;;;;;;27.80;11.70;;;;;;;;;;10453102;28;20555;-74
2023/02/07 10:49:39;;;;;;;27.00;13.25;;;;;;;;;;10454682;28;20032;-75
2023/02/07 10:54:59;;;;;;;31.42;13.18;;;;;;;;;;10452804;28;20029;-75
2023/02/07 11:00:02;;;;;;;25.10;12.02;;;;;;;;;;10454266;28;20032;-72
2023/02/07 11:05:25;;;;;;;32.10;11.07;;;;;;;;;;10452671;28;20040;-74
2023/02/07 11:10:32;;;;;;;20.77;9.45;;;;;;;;;;10411167;28;20132;-75
2023/02/07 11:15:37;;;;;;;23.02;11.18;;;;;;;;;;10412809;28;20121;-72
2023/02/07 11:20:39;;;;;;;21.60;9.93;;;;;;;;;;10453424;28;20103;-73
2023/02/07 11:25:43;;;;;;;16.88;7.60;;;;;;;;;;10452045;28;20031;-73
2023/02/07 11:30:44;;;;;;;20.75;7.25;;;;;;;;;;10451912;28;20063;-72
2023/02/07 11:36:03;;;;;;;13.50;6.70;;;;;;;;;;10446206;28;20112;-72
2023/02/07 11:41:05;;;;;;;21.67;9.55;;;;;;;;;;10415896;28;20886;-75
2023/02/07 11:46:08;;;;;;;20.17;9.98;;;;;;;;;;10409934;28;20051;-74
2023/02/07 11:51:14;;;;;;;20.40;9.88;;;;;;;;;;10449030;28;20108;-74
2023/02/07 11:56:25;;;;;;;20.77;8.18;;;;;;;;;;10451256;28;20399;-73
2023/02/07 12:01:28;;;;;;;19.17;8.15;;;;;;;;;;10450243;28;20021;-73
2023/02/07 12:06:35;;;;;;;16.52;8.93;;;;;;;;;;10452939;28;20064;-72
2023/02/07 12:11:37;;;;;;;23.10;9.05;;;;;;;;;;10450020;28;20119;-78
2023/02/07 12:16:40;;;;;;;17.25;7.57;;;;;;;;;;10451168;28;20020;-77
2023/02/07 12:22:06;;;;;;;23.15;10.60;;;;;;;;;;10449079;28;20021;-74
2023/02/07 12:27:16;;;;;;;18.88;8.95;;;;;;;;;;10445998;28;20158;-74
2023/02/07 12:32:29;;;;;;;20.33;9.55;;;;;;;;;;10446973;28;20074;-74
2023/02/07 12:37:29;;;;;;;16.48;8.73;;;;;;;;;;10443814;28;20025;-73
2023/02/07 12:42:29;;;;;;;19.33;8.23;;;;;;;;;;10447279;28;20173;-73
2023/02/07 12:47:36;;;;;;;28.40;9.02;;;;;;;;;;10446415;28;20024;-73
2023/02/07 12:52:39;;;;;;;21.40;9.38;;;;;;;;;;10437256;28;20486;-73
2023/02/07 12:57:52;;;;;;;46.45;11.13;;;;;;;;;;10442160;28;20021;-79
2023/02/07 13:02:58;;;;;;;22.67;9.10;;;;;;;;;;10445725;28;20035;-73
2023/02/07 13:08:01;;;;;;;19.27;8.75;;;;;;;;;;10445650;28;20091;-72
2023/02/07 13:13:05;;;;;;;19.85;7.53;;;;;;;;;;10447133;28;20029;-72
2023/02/07 13:18:09;;;;;;;31.35;11.82;;;;;;;;;;10444846;28;20051;-72
2023/02/07 13:23:13;;;;;;;19.83;9.85;;;;;;;;;;10446927;28;20033;-75
2023/02/07 13:28:19;;;;;;;19.23;7.97;;;;;;;;;;10442074;28;20017;-78
2023/02/07 13:33:28;;;;;;;41.53;10.77;;;;;;;;;;10444321;28;20029;-76
2023/02/07 13:38:52;;;;;;;21.27;8.65;;;;;;;;;;10445260;28;20120;-79
2023/02/07 13:43:57;;;;;;;26.85;9.82;;;;;;;;;;10436170;28;20503;-80
2023/02/07 13:49:12;;;;;;;23.33;10.77;;;;;;;;;;10444095;28;20047;-76
2023/02/07 13:54:25;;;;;;;17.23;8.93;;;;;;;;;;10442566;28;20024;-74
2023/02/07 13:59:38;;;;;;;18.20;9.68;;;;;;;;;;10445019;28;20028;-74
2023/02/07 14:04:45;;;;;;;25.20;12.20;;;;;;;;;;10444765;28;20021;-74
2023/02/07 14:09:46;;;;;;;18.95;9.50;;;;;;;;;;10445137;28;20053;-80
2023/02/07 14:14:47;;;;;;;22.30;11.02;;;;;;;;;;10446587;28;20107;-78
2023/02/07 14:19:48;;;;;;;21.92;11.90;;;;;;;;;;10446274;28;20013;-74
2023/02/07 14:24:50;;;;;;;20.58;9.45;;;;;;;;;;10444794;28;20145;-74
2023/02/07 14:29:52;;;;;;;18.77;8.95;;;;;;;;;;10441328;28;20489;-72
2023/02/07 14:34:58;;;;;;;25.63;11.35;;;;;;;;;;10444495;28;20640;-75
2023/02/07 14:40:05;;;;;;;26.17;10.50;;;;;;;;;;10442980;28;20024;-74
2023/02/07 14:45:07;;;;;;;21.23;9.52;;;;;;;;;;10442526;28;20025;-77
2023/02/07 14:50:08;;;;;;;19.40;10.40;;;;;;;;;;10443694;28;20064;-77
2023/02/07 14:55:16;;;;;;;26.70;12.52;;;;;;;;;;10436172;28;20128;-78
2023/02/07 15:00:17;;;;;;;24.02;11.73;;;;;;;;;;10438749;28;20082;-75
2023/02/07 15:05:19;;;;;;;29.67;12.45;;;;;;;;;;10442279;28;20059;-74
2023/02/07 15:10:24;;;;;;;25.75;11.40;;;;;;;;;;10442231;28;20087;-77
2023/02/07 15:15:26;;;;;;;21.95;11.30;;;;;;;;;;10434203;28;20116;-72
2023/02/07 15:20:29;;;;;;;33.55;17.30;;;;;;;;;;10446241;28;20115;-76
2023/02/07 15:25:31;;;;;;;33.25;13.77;;;;;;;;;;10449094;28;20104;-73
2023/02/07 15:30:32;;;;;;;34.88;15.10;;;;;;;;;;10448464;28;20467;-73
2023/02/07 15:35:38;;;;;;;33.63;13.10;;;;;;;;;;10449154;28;20033;-74
2023/02/07 15:40:38;;;;;;;34.05;13.35;;;;;;;;;;10452719;28;20025;-72
2023/02/07 15:45:38;;;;;;;23.70;11.67;;;;;;;;;;10450775;28;20021;-78
2023/02/07 15:50:39;;;;;;;33.20;16.08;;;;;;;;;;10445140;28;20354;-72
2023/02/07 15:55:49;;;;;;;38.42;14.77;;;;;;;;;;10448835;28;20106;-73
2023/02/07 16:00:52;;;;;;;30.48;14.93;;;;;;;;;;10448832;28;20387;-74
2023/02/07 16:06:00;;;;;;;32.65;14.30;;;;;;;;;;10449701;28;20128;-73
2023/02/07 16:11:29;;;;;;;36.08;17.17;;;;;;;;;;10449467;28;20418;-73
2023/02/07 16:16:33;;;;;;;30.98;14.95;;;;;;;;;;10425225;28;20040;-73
2023/02/07 16:21:33;;;;;;;34.67;15.73;;;;;;;;;;10445161;28;20021;-73
2023/02/07 16:26:34;;;;;;;35.08;17.02;;;;;;;;;;10447355;28;20028;-74
2023/02/07 16:31:34;;;;;;;35.03;16.30;;;;;;;;;;10442592;28;20047;-74
2023/02/07 16:36:34;;;;;;;41.28;18.85;;;;;;;;;;10446027;28;20035;-75
2023/02/07 16:41:38;;;;;;;41.58;18.70;;;;;;;;;;10445815;28;20050;-77
2023/02/07 16:46:38;;;;;;;38.13;16.83;;;;;;;;;;10446401;28;20094;-75
2023/02/07 16:51:38;;;;;;;38.78;17.15;;;;;;;;;;10441962;28;20453;-72
2023/02/07 16:56:40;;;;;;;40.08;16.88;;;;;;;;;;10446892;28;20021;-74
2023/02/07 17:01:40;;;;;;;42.42;19.88;;;;;;;;;;10440289;28;20087;-72
2023/02/07 17:06:41;;;;;;;43.70;18.37;;;;;;;;;;10444923;28;20053;-72
2023/02/07 17:11:41;;;;;;;38.75;17.27;;;;;;;;;;10444264;28;20043;-74
2023/02/07 17:16:41;;;;;;;37.58;18.02;;;;;;;;;;10441742;28;20094;-73
2023/02/07 17:21:43;;;;;;;43.97;17.85;;;;;;;;;;10441192;28;20584;-73
2023/02/07 17:26:46;;;;;;;41.60;18.10;;;;;;;;;;10442603;28;20108;-74
2023/02/07 17:31:46;;;;;;;35.38;18.48;;;;;;;;;;10425940;28;20025;-81
2023/02/07 17:36:47;;;;;;;37.38;17.38;;;;;;;;;;10440819;28;20418;-77
2023/02/07 17:41:48;;;;;;;38.95;16.58;;;;;;;;;;10441049;28;20037;-73
2023/02/07 17:46:48;;;;;;;38.33;17.52;;;;;;;;;;10426852;28;20036;-76
2023/02/07 17:51:48;;;;;;;36.10;17.50;;;;;;;;;;10434784;28;20059;-73
2023/02/07 17:56:48;;;;;;;49.53;21.47;;;;;;;;;;10435147;28;20035;-76
2023/02/07 18:01:49;;;;;;;39.85;18.13;;;;;;;;;;10436360;28;20032;-77
2023/02/07 18:06:49;;;;;;;47.05;20.58;;;;;;;;;;10437778;28;20048;-76
2023/02/07 18:11:50;;;;;;;43.60;19.83;;;;;;;;;;10441428;28;20033;-78
2023/02/07 18:16:50;;;;;;;41.47;19.47;;;;;;;;;;10420820;28;20021;-74
2023/02/07 18:21:50;;;;;;;42.80;19.23;;;;;;;;;;10438413;28;20387;-73
2023/02/07 18:26:50;;;;;;;49.17;21.67;;;;;;;;;;10434636;28;20075;-77
2023/02/07 18:31:52;;;;;;;45.65;20.38;;;;;;;;;;10438603;28;20742;-76
2023/02/07 18:36:53;;;;;;;39.40;19.65;;;;;;;;;;10438539;28;20029;-78
2023/02/07 18:41:54;;;;;;;40.53;19.75;;;;;;;;;;10435306;28;20036;-75
2023/02/07 18:46:54;;;;;;;37.40;18.35;;;;;;;;;;10438648;28;20063;-78
2023/02/07 18:51:54;;;;;;;41.90;22.38;;;;;;;;;;10421347;28;20032;-74
2023/02/07 18:56:55;;;;;;;39.73;22.23;;;;;;;;;;10442970;28;20025;-74
2023/02/07 19:01:55;;;;;;;46.37;20.63;;;;;;;;;;10442063;28;20300;-74
2023/02/07 19:06:58;;;;;;;43.40;20.00;;;;;;;;;;10444790;28;20064;-74
2023/02/07 19:11:58;;;;;;;36.53;18.60;;;;;;;;;;10437339;28;20061;-73
2023/02/07 19:16:59;;;;;;;33.57;18.80;;;;;;;;;;10445636;28;20539;-73
2023/02/07 19:21:59;;;;;;;40.57;18.80;;;;;;;;;;10444038;28;20071;-75
2023/02/07 19:26:59;;;;;;;36.80;18.65;;;;;;;;;;10444937;28;20048;-78
2023/02/07 19:32:01;;;;;;;40.20;16.93;;;;;;;;;;10445482;28;20021;-72
2023/02/07 19:37:01;;;;;;;38.47;20.27;;;;;;;;;;10444020;28;20483;-76
2023/02/07 19:42:01;;;;;;;44.90;22.83;;;;;;;;;;10443317;28;20033;-73
2023/02/07 19:47:03;;;;;;;40.53;20.20;;;;;;;;;;10445805;28;20033;-74
2023/02/07 19:52:04;;;;;;;43.25;19.10;;;;;;;;;;10440043;28;20021;-74
2023/02/07 19:57:04;;;;;;;44.35;19.70;;;;;;;;;;10442976;28;20020;-75
2023/02/07 20:02:04;;;;;;;40.70;20.58;;;;;;;;;;10443453;28;20028;-75
2023/02/07 20:07:05;;;;;;;38.83;18.42;;;;;;;;;;10442552;28;20253;-73
2023/02/07 20:12:06;;;;;;;37.47;19.55;;;;;;;;;;10442980;28;20599;-74
2023/02/07 20:17:06;;;;;;;36.00;17.85;;;;;;;;;;10443377;28;20021;-78
2023/02/07 20:22:07;;;;;;;44.08;19.17;;;;;;;;;;10442084;28;20044;-77
2023/02/07 20:27:07;;;;;;;38.33;17.75;;;;;;;;;;10441836;28;20021;-79
2023/02/07 20:32:11;;;;;;;53.95;18.23;;;;;;;;;;10441574;28;20025;-82
2023/02/07 20:37:11;;;;;;;34.40;15.88;;;;;;;;;;10449490;28;20112;-75
2023/02/07 20:42:11;;;;;;;34.43;16.03;;;;;;;;;;10430082;28;20025;-76
2023/02/07 20:47:12;;;;;;;41.50;21.27;;;;;;;;;;10439254;28;20017;-76
2023/02/07 20:52:12;;;;;;;38.90;17.98;;;;;;;;;;10435932;28;20036;-76
2023/02/07 20:57:12;;;;;;;38.45;19.23;;;;;;;;;;10438282;28;20021;-77
2023/02/07 21:02:13;;;;;;;26.07;15.13;;;;;;;;;;10457732;28;20052;-78
2023/02/07 21:07:13;;;;;;;38.17;18.38;;;;;;;;;;10440315;28;20053;-77
2023/02/07 21:12:13;;;;;;;37.33;18.60;;;;;;;;;;10431037;28;20435;-73
2023/02/07 21:17:13;;;;;;;38.38;18.45;;;;;;;;;;10424367;28;20298;-76
2023/02/07 21:22:14;;;;;;;34.75;19.83;;;;;;;;;;10439416;28;20048;-77
2023/02/07 21:27:14;;;;;;;40.45;18.08;;;;;;;;;;10427306;28;20022;-75
2023/02/07 21:32:14;;;;;;;38.13;20.15;;;;;;;;;;10438849;28;20115;-74
2023/02/07 21:37:14;;;;;;;38.15;17.60;;;;;;;;;;10439943;28;20032;-77
2023/02/07 21:42:15;;;;;;;40.40;18.00;;;;;;;;;;10440872;28;20448;-77
2023/02/07 21:47:15;;;;;;;34.38;16.00;;;;;;;;;;10443070;28;20506;-77
2023/02/07 21:52:17;;;;;;;34.58;18.42;;;;;;;;;;10441654;28;20463;-75
2023/02/07 21:57:17;;;;;;;38.28;17.88;;;;;;;;;;10439136;28;20018;-75
2023/02/07 22:02:17;;;;;;;36.80;18.42;;;;;;;;;;10441077;28;20028;-75
2023/02/07 22:07:17;;;;;;;30.15;15.77;;;;;;;;;;10442084;28;20151;-74
2023/02/07 22:12:18;;;;;;;45.00;16.35;;;;;;;;;;10407563;28;20036;-75
2023/02/07 22:17:18;;;;;;;34.43;14.53;;;;;;;;;;10442207;28;20025;-73
2023/02/07 22:22:18;;;;;;;30.17;15.55;;;;;;;;;;10442030;28;20021;-75
2023/02/07 22:27:19;;;;;;;28.17;13.30;;;;;;;;;;10441028;28;20495;-78
2023/02/07 22:32:19;;;;;;;36.03;15.27;;;;;;;;;;10441493;28;20021;-76
2023/02/07 22:37:19;;;;;;;33.83;16.67;;;;;;;;;;10425454;28;20078;-78
2023/02/07 22:42:19;;;;;;;31.13;14.93;;;;;;;;;;10434839;28;20302;-78
2023/02/07 22:47:20;;;;;;;34.08;16.08;;;;;;;;;;10443124;28;20029;-77
2023/02/07 22:52:20;;;;;;;34.03;16.60;;;;;;;;;;10441494;28;20025;-79
2023/02/07 22:57:20;;;;;;;27.98;15.25;;;;;;;;;;10443372;28;20100;-79
2023/02/07 23:02:21;;;;;;;29.33;15.63;;;;;;;;;;10443022;28;20025;-78
2023/02/07 23:07:21;;;;;;;33.30;16.20;;;;;;;;;;10440781;28;20093;-80
2023/02/07 23:12:21;;;;;;;33.60;14.55;;;;;;;;;;10440805;28;20049;-76
2023/02/07 23:17:23;;;;;;;32.07;15.63;;;;;;;;;;10441176;28;20017;-80
2023/02/07 23:22:23;;;;;;;27.02;14.15;;;;;;;;;;10442849;28;20295;-77
2023/02/07 23:27:23;;;;;;;35.72;15.35;;;;;;;;;;10441765;28;20116;-81
2023/02/07 23:32:23;;;;;;;27.48;14.05;;;;;;;;;;10440081;28;20025;-74
2023/02/07 23:37:24;;;;;;;30.02;13.23;;;;;;;;;;10441349;28;20140;-81
2023/02/07 23:42:24;;;;;;;28.77;16.10;;;;;;;;;;10446148;28;20130;-77
2023/02/07 23:47:24;;;;;;;31.88;16.33;;;;;;;;;;10448021;28;20047;-74
2023/02/07 23:52:25;;;;;;;34.30;16.47;;;;;;;;;;10448863;28;20028;-80
2023/02/07 23:57:25;;;;;;;28.10;13.98;;;;;;;;;;10447448;28;20020;-79
